createdAt,value
2018-06-04T00:00:34.465Z,85.14
2018-06-04T00:03:09.343Z,84.98
2018-06-04T00:05:44.653Z,84.17
2018-06-04T00:08:19.448Z,85.09
2018-06-04T00:10:54.462Z,84.75
2018-06-04T00:13:29.514Z,84.87
2018-06-04T00:16:04.202Z,84.97
2018-06-04T00:18:38.462Z,84.86
2018-06-04T00:21:13.314Z,84.94
2018-06-04T00:23:48.226Z,85.74
2018-06-04T00:26:23.410Z,85.28
2018-06-04T00:28:58.158Z,85.93
2018-06-04T00:31:33.325Z,85.67
2018-06-04T00:34:08.551Z,86.16
2018-06-04T00:36:43.951Z,85.94
2018-06-04T00:39:18.645Z,86.28
2018-06-04T00:41:54.429Z,87.29
2018-06-04T00:44:29.892Z,87.11
2018-06-04T00:47:05.046Z,87.78
2018-06-04T00:49:39.310Z,87.02
2018-06-04T00:52:14.353Z,87.37
2018-06-04T00:54:49.326Z,87.14
2018-06-04T00:57:23.760Z,87.08
2018-06-04T00:59:58.753Z,87.51
2018-06-04T01:02:33.578Z,87.79
2018-06-04T01:05:08.678Z,87.53
2018-06-04T01:07:43.890Z,87.14
2018-06-04T01:10:18.662Z,87.23
2018-06-04T01:12:54.036Z,87.12
2018-06-04T01:15:29.175Z,87.63
2018-06-04T01:18:03.694Z,87.80
2018-06-04T01:20:38.574Z,87.68
2018-06-04T01:23:14.178Z,87.24
2018-06-04T01:25:49.012Z,88.25
2018-06-04T01:28:23.937Z,87.82
2018-06-04T01:30:58.939Z,87.85
2018-06-04T01:33:33.585Z,87.96
2018-06-04T01:36:08.655Z,87.79
2018-06-04T01:38:43.781Z,87.88
2018-06-04T01:41:18.772Z,88.15
2018-06-04T01:43:53.854Z,88.27
2018-06-04T01:46:29.286Z,88.06
2018-06-04T01:49:04.466Z,88.73
2018-06-04T01:51:39.858Z,88.60
2018-06-04T01:54:15.007Z,88.80
2018-06-04T01:56:50.241Z,87.86
2018-06-04T01:59:24.911Z,88.26
2018-06-04T02:01:59.497Z,88.17
2018-06-04T02:04:33.874Z,88.21
2018-06-04T02:07:08.735Z,89.44
2018-06-04T02:09:43.901Z,89.78
2018-06-04T02:12:18.758Z,89.29
2018-06-04T02:14:53.828Z,89.00
2018-06-04T02:17:28.709Z,89.35
2018-06-04T02:20:03.705Z,88.80
2018-06-04T02:22:38.567Z,88.69
2018-06-04T02:25:13.398Z,88.73
2018-06-04T02:27:48.138Z,88.99
2018-06-04T02:30:22.986Z,88.99
2018-06-04T02:32:57.936Z,89.57
2018-06-04T02:35:32.815Z,89.67
2018-06-04T02:38:08.097Z,89.71
2018-06-04T02:40:42.999Z,90.05
2018-06-04T02:43:17.771Z,90.51
2018-06-04T02:45:52.829Z,90.04
2018-06-04T02:48:27.379Z,89.89
2018-06-04T02:51:02.811Z,90.22
2018-06-04T02:53:37.946Z,89.95
2018-06-04T02:56:13.415Z,89.85
2018-06-04T02:58:48.920Z,90.30
2018-06-04T03:01:23.974Z,90.63
2018-06-04T03:03:59.316Z,90.23
2018-06-04T03:06:33.911Z,90.64
2018-06-04T03:09:09.341Z,90.64
2018-06-04T03:11:44.588Z,90.48
2018-06-04T03:14:19.313Z,90.64
2018-06-04T03:16:54.512Z,90.91
2018-06-04T03:19:29.922Z,91.48
2018-06-04T03:22:05.068Z,92.49
2018-06-04T03:24:40.114Z,92.40
2018-06-04T03:27:14.790Z,92.37
2018-06-04T03:29:49.298Z,92.57
2018-06-04T03:32:24.368Z,93.32
2018-06-04T03:34:59.718Z,92.70
2018-06-04T03:37:34.267Z,93.21
2018-06-04T03:40:09.698Z,93.21
2018-06-04T03:42:44.178Z,92.92
2018-06-04T03:45:18.990Z,93.20
2018-06-04T03:47:54.014Z,92.50
2018-06-04T03:50:28.992Z,92.98
2018-06-04T03:53:03.782Z,91.88
2018-06-04T03:55:38.849Z,91.63
2018-06-04T03:58:13.601Z,91.51
2018-06-04T04:00:48.463Z,92.01
2018-06-04T04:03:23.711Z,92.02
2018-06-04T04:05:58.478Z,92.40
2018-06-04T04:08:33.588Z,92.87
2018-06-04T04:11:08.681Z,93.12
2018-06-04T04:13:43.819Z,94.04
2018-06-04T04:16:18.137Z,93.64
2018-06-04T04:18:53.513Z,93.37
2018-06-04T04:21:28.798Z,93.59
2018-06-04T04:24:03.542Z,93.94
2018-06-04T04:26:38.125Z,94.39
2018-06-04T04:29:12.822Z,94.59
2018-06-04T04:31:47.877Z,94.17
2018-06-04T04:34:23.268Z,93.43
2018-06-04T04:36:58.045Z,93.35
2018-06-04T04:39:32.741Z,93.79
2018-06-04T04:42:07.334Z,93.07
2018-06-04T04:44:42.601Z,93.49
2018-06-04T04:47:17.977Z,93.61
2018-06-04T04:49:52.915Z,94.65
2018-06-04T04:52:27.765Z,94.29
2018-06-04T04:55:02.958Z,94.41
2018-06-04T04:57:37.793Z,94.21
2018-06-04T05:00:12.852Z,93.85
2018-06-04T05:02:47.785Z,92.61
2018-06-04T05:05:22.513Z,91.94
2018-06-04T05:07:57.284Z,91.80
2018-06-04T05:10:31.864Z,91.72
2018-06-04T05:13:07.538Z,91.08
2018-06-04T05:15:42.640Z,91.24
2018-06-04T05:18:16.883Z,91.12
2018-06-04T05:20:51.894Z,91.07
2018-06-04T05:23:27.275Z,90.41
2018-06-04T05:26:02.252Z,90.38
2018-06-04T05:28:37.558Z,90.21
2018-06-04T05:31:12.922Z,90.36
2018-06-04T05:33:47.323Z,91.00
2018-06-04T05:36:22.326Z,91.12
2018-06-04T05:38:57.197Z,91.09
2018-06-04T05:41:32.169Z,91.63
2018-06-04T05:44:07.183Z,91.72
2018-06-04T05:46:42.211Z,91.73
2018-06-04T05:49:17.031Z,92.30
2018-06-04T05:51:51.742Z,92.51
2018-06-04T05:54:26.994Z,92.38
2018-06-04T05:57:01.495Z,90.85
2018-06-04T05:59:36.602Z,91.44
2018-06-04T06:02:11.881Z,92.16
2018-06-04T06:04:46.614Z,92.60
2018-06-04T06:07:21.342Z,92.18
2018-06-04T06:09:56.250Z,92.58
2018-06-04T06:12:30.865Z,91.86
2018-06-04T06:15:05.712Z,92.09
2018-06-04T06:17:40.893Z,91.80
2018-06-04T06:20:15.669Z,91.92
2018-06-04T06:22:50.069Z,91.44
2018-06-04T06:25:24.841Z,91.82
2018-06-04T06:28:00.102Z,91.59
2018-06-04T06:30:35.554Z,90.76
2018-06-04T06:33:10.660Z,90.62
2018-06-04T06:35:46.031Z,89.58
2018-06-04T06:38:21.275Z,90.49
2018-06-04T06:40:56.642Z,89.53
2018-06-04T06:43:31.731Z,89.50
2018-06-04T06:46:06.838Z,89.84
2018-06-04T06:48:41.710Z,90.42
2018-06-04T06:51:16.993Z,90.76
2018-06-04T06:53:51.870Z,89.88
2018-06-04T06:56:26.601Z,89.17
2018-06-04T06:59:02.153Z,89.38
2018-06-04T07:01:37.414Z,88.78
2018-06-04T07:04:12.538Z,89.51
2018-06-04T07:06:47.117Z,89.55
2018-06-04T07:09:22.476Z,89.67
2018-06-04T07:11:56.891Z,88.96
2018-06-04T07:14:31.793Z,88.40
2018-06-04T07:17:06.914Z,88.30
2018-06-04T07:19:42.157Z,88.78
2018-06-04T07:22:17.039Z,89.42
2018-06-04T07:24:51.991Z,89.10
2018-06-04T07:27:26.623Z,88.58
2018-06-04T07:30:00.937Z,89.51
2018-06-04T07:32:35.655Z,89.93
2018-06-04T07:35:11.111Z,90.86
2018-06-04T07:37:45.633Z,90.02
2018-06-04T07:40:20.887Z,90.39
2018-06-04T07:42:56.116Z,89.97
2018-06-04T07:45:30.939Z,90.02
2018-06-04T07:48:05.709Z,89.30
2018-06-04T07:50:41.010Z,89.00
2018-06-04T07:53:15.846Z,88.58
2018-06-04T07:55:50.471Z,87.58
2018-06-04T07:58:26.388Z,87.25
2018-06-04T08:01:00.865Z,87.84
2018-06-04T08:03:35.917Z,87.03
2018-06-04T08:06:10.570Z,87.67
2018-06-04T08:08:45.834Z,88.37
2018-06-04T08:11:20.749Z,87.63
2018-06-04T08:13:55.557Z,88.39
2018-06-04T08:16:30.789Z,88.44
2018-06-04T08:19:05.980Z,87.86
2018-06-04T08:21:41.130Z,88.19
2018-06-04T08:24:15.770Z,87.83
2018-06-04T08:26:50.745Z,87.62
2018-06-04T08:29:25.255Z,86.98
2018-06-04T08:31:59.493Z,87.27
2018-06-04T08:34:34.493Z,87.04
2018-06-04T08:37:09.019Z,86.86
2018-06-04T08:39:44.215Z,86.40
2018-06-04T08:42:19.003Z,86.74
2018-06-04T08:44:53.767Z,86.20
2018-06-04T08:47:28.159Z,85.48
2018-06-04T08:50:02.442Z,86.16
2018-06-04T08:52:37.649Z,85.87
2018-06-04T08:55:12.338Z,85.43
2018-06-04T08:57:47.454Z,83.14
2018-06-04T09:00:22.647Z,84.25
2018-06-04T09:02:57.472Z,83.83
2018-06-04T09:05:32.664Z,83.35
2018-06-04T09:08:07.673Z,81.88
2018-06-04T09:10:42.482Z,80.62
2018-06-04T09:13:17.808Z,80.14
2018-06-04T09:15:52.785Z,81.04
2018-06-04T09:18:27.631Z,80.75
2018-06-04T09:21:02.366Z,80.55
2018-06-04T09:23:37.413Z,80.21
2018-06-04T09:26:12.747Z,79.41
2018-06-04T09:28:47.563Z,78.81
2018-06-04T09:31:22.573Z,78.71
2018-06-04T09:33:57.541Z,78.66
2018-06-04T09:36:32.702Z,77.64
2018-06-04T09:39:08.653Z,77.35
2018-06-04T09:41:43.640Z,77.01
2018-06-04T09:44:18.858Z,76.80
2018-06-04T09:46:54.534Z,76.91
2018-06-04T09:49:28.956Z,75.00
2018-06-04T09:52:05.441Z,75.63
2018-06-04T09:54:39.879Z,74.48
2018-06-04T09:57:14.916Z,74.21
2018-06-04T09:59:50.029Z,73.39
2018-06-04T10:02:24.808Z,74.59
2018-06-04T10:04:59.591Z,75.00
2018-06-04T10:07:34.918Z,72.99
2018-06-04T10:10:18.802Z,72.52
2018-06-04T10:12:53.230Z,72.92
2018-06-04T10:15:27.902Z,73.23
2018-06-04T10:18:03.273Z,73.72
2018-06-04T10:20:38.234Z,73.57
2018-06-04T10:23:13.181Z,73.92
2018-06-04T10:25:47.607Z,74.32
2018-06-04T10:28:22.890Z,74.39
2018-06-04T10:30:57.337Z,75.16
2018-06-04T10:33:32.078Z,75.65
2018-06-04T10:36:07.265Z,75.66
2018-06-04T10:38:42.345Z,75.91
2018-06-04T10:41:17.719Z,75.60
2018-06-04T10:43:52.314Z,75.28
2018-06-04T10:46:27.699Z,74.15
2018-06-04T10:49:03.438Z,73.34
2018-06-04T10:51:37.988Z,70.96
2018-06-04T10:54:12.956Z,70.22
2018-06-04T10:56:48.337Z,68.11
2018-06-04T10:59:22.910Z,69.28
2018-06-04T11:01:57.806Z,69.49
2018-06-04T11:04:32.709Z,69.22
2018-06-04T11:07:07.340Z,68.74
2018-06-04T11:09:42.303Z,66.92
2018-06-04T11:12:17.286Z,66.17
2018-06-04T11:14:52.421Z,66.98
2018-06-04T11:17:27.165Z,66.17
2018-06-04T11:20:01.593Z,66.20
2018-06-04T11:22:36.305Z,66.42
2018-06-04T11:25:11.403Z,67.83
2018-06-04T11:27:46.197Z,67.16
2018-06-04T11:30:21.856Z,65.95
2018-06-04T11:32:56.573Z,65.48
2018-06-04T11:35:31.510Z,65.32
2018-06-04T11:38:07.063Z,63.64
2018-06-04T11:40:41.926Z,63.42
2018-06-04T11:43:16.414Z,63.24
2018-06-04T11:45:51.574Z,62.92
2018-06-04T11:48:26.274Z,61.96
2018-06-04T11:51:01.507Z,62.71
2018-06-04T11:53:36.567Z,63.90
2018-06-04T11:56:11.705Z,62.18
2018-06-04T11:58:46.446Z,62.33
2018-06-04T12:01:21.388Z,62.95
2018-06-04T12:03:56.357Z,63.14
2018-06-04T12:06:31.569Z,63.30
2018-06-04T12:09:07.782Z,63.70
2018-06-04T12:11:43.210Z,63.24
2018-06-04T12:14:18.156Z,62.82
2018-06-04T12:16:53.040Z,61.10
2018-06-04T12:19:27.837Z,62.83
2018-06-04T12:22:02.465Z,62.91
2018-06-04T12:24:37.682Z,61.74
2018-06-04T12:27:12.609Z,61.91
2018-06-04T12:29:48.079Z,61.90
2018-06-04T12:32:23.530Z,61.30
2018-06-04T12:34:59.257Z,61.18
2018-06-04T12:37:34.197Z,60.10
2018-06-04T12:40:09.542Z,61.27
2018-06-04T12:42:43.844Z,62.53
2018-06-04T12:45:19.001Z,61.37
2018-06-04T12:47:54.077Z,60.26
2018-06-04T12:50:29.256Z,60.55
2018-06-04T12:53:03.581Z,58.49
2018-06-04T12:55:38.402Z,56.89
2018-06-04T12:58:13.653Z,56.54
2018-06-04T13:00:48.887Z,57.79
2018-06-04T13:03:23.612Z,59.20
2018-06-04T13:05:58.749Z,60.62
2018-06-04T13:08:33.442Z,59.15
2018-06-04T13:11:08.034Z,57.01
2018-06-04T13:13:43.090Z,57.49
2018-06-04T13:16:18.178Z,58.17
2018-06-04T13:18:53.549Z,56.17
2018-06-04T13:21:28.423Z,55.71
2018-06-04T13:24:03.203Z,54.95
2018-06-04T13:26:38.004Z,57.23
2018-06-04T13:29:13.312Z,56.84
2018-06-04T13:31:47.913Z,57.01
2018-06-04T13:34:22.509Z,57.87
2018-06-04T13:36:57.266Z,57.12
2018-06-04T13:39:32.247Z,57.22
2018-06-04T13:42:07.542Z,56.80
2018-06-04T13:44:43.022Z,56.46
2018-06-04T13:47:18.522Z,56.68
2018-06-04T13:49:53.359Z,57.08
2018-06-04T13:52:28.597Z,55.59
2018-06-04T13:55:03.599Z,54.86
2018-06-04T13:57:38.498Z,53.80
2018-06-04T14:00:13.501Z,53.42
2018-06-04T14:02:48.786Z,54.30
2018-06-04T14:05:23.918Z,55.02
2018-06-04T14:07:59.168Z,55.54
2018-06-04T14:10:34.212Z,54.50
2018-06-04T14:13:08.989Z,54.62
2018-06-04T14:15:44.118Z,54.54
2018-06-04T14:18:19.073Z,53.27
2018-06-04T14:20:54.409Z,53.68
2018-06-04T14:23:29.222Z,52.67
2018-06-04T14:26:04.662Z,52.88
2018-06-04T14:28:39.164Z,53.08
2018-06-04T14:31:14.121Z,53.48
2018-06-04T14:33:48.865Z,54.22
2018-06-04T14:36:24.045Z,53.74
2018-06-04T14:38:58.422Z,54.85
2018-06-04T14:41:33.286Z,55.18
2018-06-04T14:44:08.465Z,54.54
2018-06-04T14:46:43.592Z,55.10
2018-06-04T14:49:18.672Z,53.75
2018-06-04T14:51:54.078Z,54.01
2018-06-04T14:54:28.721Z,51.78
2018-06-04T14:57:03.751Z,51.45
2018-06-04T14:59:38.157Z,52.16
2018-06-04T15:02:12.985Z,53.08
2018-06-04T15:04:47.169Z,54.00
2018-06-04T15:07:22.273Z,54.81
2018-06-04T15:09:57.876Z,54.82
2018-06-04T15:12:32.745Z,54.76
2018-06-04T15:15:08.273Z,54.63
2018-06-04T15:17:43.342Z,55.53
2018-06-04T15:20:18.369Z,55.89
2018-06-04T15:22:53.545Z,55.48
2018-06-04T15:25:28.424Z,56.41
2018-06-04T15:28:04.026Z,56.20
2018-06-04T15:30:38.887Z,55.46
2018-06-04T15:33:13.877Z,56.03
2018-06-04T15:35:48.905Z,56.27
2018-06-04T15:38:23.968Z,55.62
2018-06-04T15:40:59.260Z,56.24
2018-06-04T15:43:34.150Z,56.26
2018-06-04T15:46:09.585Z,57.34
2018-06-04T15:48:44.189Z,57.77
2018-06-04T15:51:19.297Z,56.73
2018-06-04T15:53:54.498Z,56.24
2018-06-04T15:56:29.569Z,57.51
2018-06-04T15:59:04.340Z,57.04
2018-06-04T16:01:39.797Z,56.58
2018-06-04T16:04:14.773Z,57.62
2018-06-04T16:06:49.165Z,57.34
2018-06-04T16:09:24.581Z,57.03
2018-06-04T16:12:00.058Z,56.54
2018-06-04T16:14:34.595Z,57.06
2018-06-04T16:17:09.669Z,57.69
2018-06-04T16:19:44.521Z,58.29
2018-06-04T16:22:19.253Z,58.46
2018-06-04T16:24:53.433Z,57.91
2018-06-04T16:27:28.808Z,58.90
2018-06-04T16:30:03.712Z,57.62
2018-06-04T16:32:38.920Z,58.51
2018-06-04T16:35:13.665Z,58.05
2018-06-04T16:37:49.399Z,59.84
2018-06-04T16:40:24.921Z,59.57
2018-06-04T16:43:00.078Z,58.40
2018-06-04T16:45:35.221Z,58.75
2018-06-04T16:48:10.201Z,59.57
2018-06-04T16:50:44.717Z,60.66
2018-06-04T16:53:19.876Z,60.90
2018-06-04T16:55:54.149Z,60.35
2018-06-04T16:58:29.216Z,60.53
2018-06-04T17:01:04.181Z,59.90
2018-06-04T17:03:38.959Z,60.82
2018-06-04T17:06:13.702Z,60.39
2018-06-04T17:08:48.931Z,60.49
2018-06-04T17:11:23.654Z,60.84
2018-06-04T17:13:58.277Z,61.02
2018-06-04T17:16:33.281Z,61.98
2018-06-04T17:19:08.576Z,61.52
2018-06-04T17:21:44.200Z,60.80
2018-06-04T17:24:19.185Z,61.96
2018-06-04T17:26:54.334Z,62.50
2018-06-04T17:29:29.620Z,62.89
2018-06-04T17:32:04.634Z,61.80
2018-06-04T17:34:39.732Z,62.76
2018-06-04T17:37:14.430Z,63.42
2018-06-04T17:39:49.010Z,63.13
2018-06-04T17:42:24.461Z,63.70
2018-06-04T17:44:58.986Z,64.18
2018-06-04T17:47:34.574Z,64.34
2018-06-04T17:50:09.066Z,65.76
2018-06-04T17:52:44.034Z,65.56
2018-06-04T17:55:19.519Z,66.44
2018-06-04T17:57:54.589Z,66.64
2018-06-04T18:00:29.383Z,66.43
2018-06-04T18:03:04.584Z,66.55
2018-06-04T18:05:39.536Z,66.94
2018-06-04T18:08:14.389Z,67.42
2018-06-04T18:10:49.053Z,67.90
2018-06-04T18:13:24.273Z,67.95
2018-06-04T18:15:58.989Z,68.31
2018-06-04T18:18:33.821Z,67.73
2018-06-04T18:21:08.810Z,68.45
2018-06-04T18:23:43.810Z,67.94
2018-06-04T18:26:19.123Z,68.87
2018-06-04T18:28:54.173Z,68.77
2018-06-04T18:31:29.410Z,68.84
2018-06-04T18:34:04.807Z,68.67
2018-06-04T18:36:40.001Z,69.55
2018-06-04T18:39:14.773Z,69.45
2018-06-04T18:41:49.977Z,69.58
2018-06-04T18:44:25.205Z,70.58
2018-06-04T18:47:00.269Z,70.31
2018-06-04T18:49:34.994Z,70.14
2018-06-04T18:52:10.088Z,70.32
2018-06-04T18:54:45.585Z,70.66
2018-06-04T18:57:20.181Z,71.06
2018-06-04T18:59:54.813Z,70.69
2018-06-04T19:02:31.117Z,70.87
2018-06-04T19:05:06.033Z,70.93
2018-06-04T19:07:40.948Z,71.75
2018-06-04T19:10:15.448Z,71.61
2018-06-04T19:12:50.929Z,70.57
2018-06-04T19:15:25.832Z,70.80
2018-06-04T19:18:00.781Z,72.13
2018-06-04T19:20:35.474Z,72.51
2018-06-04T19:23:10.203Z,73.04
2018-06-04T19:25:45.558Z,72.49
2018-06-04T19:28:20.456Z,72.81
2018-06-04T19:30:55.140Z,73.03
2018-06-04T19:33:30.570Z,72.48
2018-06-04T19:36:05.918Z,73.10
2018-06-04T19:38:40.745Z,73.88
2018-06-04T19:41:16.037Z,74.12
2018-06-04T19:43:51.466Z,74.11
2018-06-04T19:46:26.312Z,74.98
2018-06-04T19:49:01.782Z,76.26
2018-06-04T19:51:36.458Z,75.55
2018-06-04T19:54:11.572Z,75.52
2018-06-04T19:56:47.250Z,75.79
2018-06-04T19:59:22.202Z,75.29
2018-06-04T20:01:57.073Z,73.62
2018-06-04T20:04:32.222Z,73.09
2018-06-04T20:07:07.365Z,73.15
2018-06-04T20:09:42.657Z,74.10
2018-06-04T20:12:18.021Z,73.87
2018-06-04T20:14:52.778Z,74.17
2018-06-04T20:17:27.761Z,74.11
2018-06-04T20:20:03.673Z,73.97
2018-06-04T20:22:38.368Z,74.15
2018-06-04T20:25:13.350Z,74.09
2018-06-04T20:27:48.714Z,74.22
2018-06-04T20:30:23.174Z,73.85
2018-06-04T20:32:57.901Z,74.35
2018-06-04T20:35:33.117Z,74.32
2018-06-04T20:38:08.158Z,74.74
2018-06-04T20:40:43.187Z,74.81
2018-06-04T20:43:17.803Z,75.16
2018-06-04T20:45:52.685Z,75.20
2018-06-04T20:48:27.689Z,75.90
2018-06-04T20:51:02.783Z,76.90
2018-06-04T20:53:38.024Z,76.98
2018-06-04T20:56:13.187Z,77.20
2018-06-04T20:58:47.542Z,77.27
2018-06-04T21:01:22.461Z,77.60
2018-06-04T21:03:57.413Z,77.42
2018-06-04T21:06:32.044Z,77.77
2018-06-04T21:09:07.337Z,77.45
2018-06-04T21:11:42.110Z,77.83
2018-06-04T21:14:17.200Z,78.44
2018-06-04T21:16:51.718Z,78.33
2018-06-04T21:19:26.295Z,78.79
2018-06-04T21:22:01.377Z,78.90
2018-06-04T21:24:36.829Z,78.34
2018-06-04T21:27:11.770Z,78.81
2018-06-04T21:29:46.570Z,78.92
2018-06-04T21:32:21.830Z,79.10
2018-06-04T21:34:57.449Z,79.55
2018-06-04T21:37:31.810Z,79.93
2018-06-04T21:40:06.945Z,79.53
2018-06-04T21:42:41.935Z,78.97
2018-06-04T21:45:16.788Z,79.17
2018-06-04T21:47:51.420Z,79.75
2018-06-04T21:50:26.280Z,80.26
2018-06-04T21:53:01.510Z,79.92
2018-06-04T21:55:36.118Z,80.58
2018-06-04T21:58:11.141Z,80.75
2018-06-04T22:00:46.010Z,80.12
2018-06-04T22:03:21.202Z,80.27
2018-06-04T22:05:56.662Z,80.06
2018-06-04T22:08:31.800Z,80.96
2018-06-04T22:11:06.884Z,80.45
2018-06-04T22:13:41.757Z,81.18
2018-06-04T22:16:17.109Z,80.16
2018-06-04T22:21:39.959Z,79.05
2018-06-04T22:24:15.232Z,79.26
2018-06-04T22:26:50.021Z,79.03
2018-06-04T22:29:42.240Z,79.50
2018-06-04T22:32:17.789Z,79.44
2018-06-04T22:34:53.847Z,79.58
2018-06-04T22:37:29.808Z,79.10
2018-06-04T22:40:05.580Z,79.25
2018-06-04T22:42:40.921Z,79.49
2018-06-04T22:45:16.391Z,79.32
2018-06-04T22:47:51.000Z,79.20
2018-06-04T22:50:25.626Z,78.87
2018-06-04T22:53:00.058Z,79.21
2018-06-04T22:55:35.115Z,78.59
2018-06-04T22:58:10.153Z,79.42
2018-06-04T23:00:44.948Z,79.04
2018-06-04T23:03:19.729Z,79.02
2018-06-04T23:05:54.226Z,78.95
2018-06-04T23:08:29.943Z,79.53
2018-06-04T23:11:04.996Z,79.17
2018-06-04T23:13:39.506Z,79.30
2018-06-04T23:16:14.962Z,79.27
2018-06-04T23:18:49.884Z,78.44
2018-06-04T23:21:24.852Z,78.71
2018-06-04T23:23:59.674Z,79.38
2018-06-04T23:26:34.702Z,78.76
2018-06-04T23:29:09.997Z,79.12
2018-06-04T23:31:45.100Z,78.89
2018-06-04T23:34:20.124Z,78.92
2018-06-04T23:36:55.045Z,78.34
2018-06-04T23:39:29.867Z,78.18
2018-06-04T23:42:04.923Z,77.87
2018-06-04T23:44:39.915Z,77.96
2018-06-04T23:47:14.717Z,78.46
2018-06-04T23:49:49.371Z,79.18
2018-06-04T23:52:24.456Z,79.21
2018-06-04T23:54:59.489Z,78.81
2018-06-04T23:57:35.285Z,78.88
